KMHE/MHE METAR and TAF weather

Enter ICAO airport designator
Station Type Date Time Source
KMHE METAR 2019/04/18 13:53 UTC NOAA

KMHE 181353Z AUTO 31009KT 10SM CLR 07/05 A2989 RMK AO2 SLP128 T00720050


Station Type Date Time Source
KMHE Decoded METAR 2019/04/18 13:53 UTC NOAA

MITCHELL MUNICIPAL AIRPORT, SD, United States (KMHE) 43-46N 98-02W
Apr 18, 2019 - 09:53 AM EDT / 2019.04.18 1353 UTC
Wind: from the NW (310 degrees) at 10 MPH (9 KT):0
Visibility: 10 mile(s):0
Sky conditions: clear
Temperature: 45.0 F (7.2 C)
Dew Point: 41.0 F (5.0 C)
Relative Humidity: 85%
Pressure (altimeter): 29.89 in. Hg (1012 hPa)
ob: KMHE 181353Z AUTO 31009KT 10SM CLR 07/05 A2989 RMK AO2 SLP128 T00720050
cycle: 14

Station Type Date Time Source
KMHE TAF UTC NOAA

Error!

Example: see airport list